Hlavní strana
METAR-TAF:

METAR-TAF

Letiště :

Dar es Salaam, Tanzanie

zeměpisná šířka: 06-52S, zeměpisná délka: 039-12E, výška: 55 m

Aktuální stav počasí

Zpráva byla vytvořena před 1 hodinou a 0 minutami, v 22:00 UTC
Západojihozápadní vítr 5 kt
Teplota 26°C
Vlhkost vzduchu 84%
Tlak 1012 hPa
Viditelnost 10 km a více
Skoro jasno ve výšce 1800 ft

METAR: HTDA 202200Z 25005KT 9999 FEW018 26/23 Q1012 NOSIG

Čas: 02:00 (23:00 UTC)

Předpověď počasí

Zpráva byla vytvořena před 6 hodinami a 0 minutami, v 17:00 UTC
Předpověď platná od 20 v 18 UTC do 21 v 24 UTC
Severovýchodní vítr 5 kt
Viditelnost 10 km a více
Skoro jasno ve výšce 1500 ft
Změna
od 21 v 06 UTC do 21 v 09 UTC
Severní vítr 15 kt
Oblačno až skoro zataženo ve výšce 1700 ft
Změna
od 21 v 19 UTC do 21 v 22 UTC
Severní vítr 5 kt
Polojasno ve výšce 1500 ft

TAF: HTDA 201700Z 2018/2124 05005KT 9999 FEW015 BECMG 2106/2109 01015KT BKN017 BECMG 2119/2122 36005KT SCT015

Stav a předpovědi počasí z více než 4 000 letišť (zprávy METAR a TAF).

Červené a žluté tečky na mapě představují dostupné meteorologické stanice.

Když kurzor umístíte na tečku, zobrazí se název stanice.

Pak kliknutím zobrazíte stav a předpověď počasí.

Chcete-li změnit mapu, kliknutím na zelené tlačítko se znaménkem +mapu přiblížíte, kliknutím na zelené tlačítko se znaménkem – mapu oddálíte a kliknutím na zelené šipky přejdete na sousední mapy.


METAR-TAF: